createdAt,value
2023-07-07T00:00:27.660Z,11.43
2023-07-07T00:02:54.760Z,11.92
2023-07-07T00:05:21.878Z,9.48
2023-07-07T00:07:50.162Z,9.71
2023-07-07T00:10:17.911Z,9.92
2023-07-07T00:12:45.684Z,11.09
2023-07-07T00:15:13.330Z,11.94
2023-07-07T00:17:43.151Z,11.17
2023-07-07T00:20:15.490Z,12.21
2023-07-07T00:22:42.855Z,10.87
2023-07-07T00:25:10.980Z,12.45
2023-07-07T00:27:38.946Z,11.69
2023-07-07T00:30:07.205Z,11.60
2023-07-07T00:32:34.806Z,10.92
2023-07-07T00:35:03.813Z,10.60
2023-07-07T00:37:30.857Z,9.68
2023-07-07T00:39:57.898Z,10.16
2023-07-07T00:42:24.992Z,10.54
2023-07-07T00:45:13.865Z,12.04
2023-07-07T00:47:53.784Z,10.35
2023-07-07T00:50:23.177Z,10.44
2023-07-07T00:52:50.605Z,10.77
2023-07-07T00:55:26.003Z,10.84
2023-07-07T00:57:55.383Z,10.75
2023-07-07T01:00:22.661Z,11.11
2023-07-07T01:02:56.039Z,11.24
2023-07-07T01:05:26.775Z,9.28
2023-07-07T01:07:54.452Z,9.24
2023-07-07T01:10:22.091Z,9.42
2023-07-07T01:12:51.331Z,11.22
2023-07-07T01:15:19.245Z,9.86
2023-07-07T01:17:51.668Z,9.77
2023-07-07T01:20:18.827Z,11.15
2023-07-07T01:23:07.618Z,11.08
2023-07-07T01:25:50.604Z,10.58
2023-07-07T01:28:55.302Z,10.74
2023-07-07T01:31:35.565Z,9.64
2023-07-07T01:34:03.776Z,9.96
2023-07-07T01:36:30.731Z,9.83
2023-07-07T01:38:59.653Z,9.53
2023-07-07T01:41:33.986Z,10.70
2023-07-07T01:44:24.438Z,11.06
2023-07-07T01:47:12.068Z,11.20
2023-07-07T01:49:50.334Z,10.63
2023-07-07T01:52:32.315Z,10.87
2023-07-07T01:55:06.435Z,11.08
2023-07-07T01:57:36.036Z,10.48
2023-07-07T02:00:08.084Z,10.73
2023-07-07T02:02:43.788Z,10.03
2023-07-07T02:05:13.072Z,9.32
2023-07-07T02:07:42.132Z,9.71
2023-07-07T02:10:10.470Z,9.79
2023-07-07T02:12:37.646Z,8.87
2023-07-07T02:15:05.356Z,9.47
2023-07-07T02:17:32.444Z,8.91
2023-07-07T02:19:59.903Z,10.40
2023-07-07T02:22:27.125Z,7.89
2023-07-07T02:24:57.437Z,9.54
2023-07-07T02:27:24.501Z,9.31
2023-07-07T02:29:51.607Z,9.55
2023-07-07T02:32:18.632Z,8.06
2023-07-07T02:34:49.130Z,8.65
2023-07-07T02:37:17.934Z,9.02
2023-07-07T02:39:46.272Z,10.13
2023-07-07T02:42:14.105Z,10.10
2023-07-07T02:44:41.462Z,9.44
2023-07-07T02:47:09.814Z,10.06
2023-07-07T02:49:37.232Z,9.61
2023-07-07T02:52:05.551Z,9.43
2023-07-07T02:54:35.235Z,9.59
2023-07-07T02:57:03.888Z,10.48
2023-07-07T02:59:30.880Z,8.93
2023-07-07T03:01:57.912Z,8.87
2023-07-07T03:04:26.266Z,9.66
2023-07-07T03:06:53.625Z,9.26
2023-07-07T03:09:21.484Z,10.49
2023-07-07T03:11:48.598Z,9.79
2023-07-07T03:14:21.058Z,9.26
2023-07-07T03:16:53.359Z,9.48
2023-07-07T03:19:27.442Z,9.43
2023-07-07T03:22:05.111Z,8.57
2023-07-07T03:24:42.048Z,9.68
2023-07-07T03:27:18.476Z,9.22
2023-07-07T03:29:45.792Z,9.06
2023-07-07T03:32:16.052Z,9.10
2023-07-07T03:34:45.599Z,10.08
2023-07-07T03:37:13.851Z,10.14
2023-07-07T03:39:42.100Z,8.37
2023-07-07T03:42:10.606Z,9.17
2023-07-07T03:44:38.247Z,9.39
2023-07-07T03:47:05.598Z,7.83
2023-07-07T03:49:32.657Z,9.14
2023-07-07T03:52:00.187Z,9.63
2023-07-07T03:54:27.667Z,9.60
2023-07-07T03:56:54.628Z,8.59
2023-07-07T03:59:22.476Z,9.28
2023-07-07T04:01:50.723Z,9.22
2023-07-07T04:04:18.064Z,8.95
2023-07-07T04:06:45.102Z,9.04
2023-07-07T04:09:12.240Z,9.63
2023-07-07T04:11:39.288Z,8.56
2023-07-07T04:14:06.319Z,10.43
2023-07-07T04:16:33.394Z,10.19
2023-07-07T04:19:00.519Z,10.18
2023-07-07T04:21:29.369Z,10.49
2023-07-07T04:23:58.312Z,10.20
2023-07-07T04:26:27.879Z,10.23
2023-07-07T04:28:55.757Z,9.70
2023-07-07T04:31:25.209Z,9.47
2023-07-07T04:33:52.747Z,10.38
2023-07-07T04:36:20.756Z,10.84
2023-07-07T04:38:47.759Z,9.81
2023-07-07T04:41:16.343Z,10.74
2023-07-07T04:43:46.859Z,10.99
2023-07-07T04:46:17.832Z,10.64
2023-07-07T04:48:45.430Z,10.73
2023-07-07T04:51:13.706Z,11.82
2023-07-07T04:53:42.281Z,12.18
2023-07-07T04:56:11.233Z,12.53
2023-07-07T04:58:40.364Z,12.11
2023-07-07T05:01:18.002Z,12.43
2023-07-07T05:03:46.369Z,12.50
2023-07-07T05:06:14.118Z,12.17
2023-07-07T05:08:42.943Z,13.11
2023-07-07T05:11:18.932Z,12.29
2023-07-07T05:13:50.649Z,13.50
2023-07-07T05:16:23.090Z,13.42
2023-07-07T05:18:50.612Z,13.19
2023-07-07T05:21:22.266Z,13.25
2023-07-07T05:23:53.500Z,12.88
2023-07-07T05:26:31.302Z,13.29
2023-07-07T05:29:01.523Z,13.43
2023-07-07T05:31:28.936Z,13.81
2023-07-07T05:33:55.985Z,13.26
2023-07-07T05:36:22.947Z,13.55
2023-07-07T05:38:51.466Z,14.13
2023-07-07T05:41:18.591Z,14.15
2023-07-07T05:43:45.600Z,14.27
2023-07-07T05:46:15.025Z,14.49
2023-07-07T05:48:43.751Z,14.53
2023-07-07T05:51:14.314Z,14.47
2023-07-07T05:53:44.902Z,14.34
2023-07-07T05:56:20.188Z,14.90
2023-07-07T05:58:47.324Z,15.24
2023-07-07T06:01:15.485Z,14.20
2023-07-07T06:03:43.845Z,15.47
2023-07-07T06:06:11.320Z,15.59
2023-07-07T06:08:41.192Z,16.04
2023-07-07T06:11:08.650Z,16.12
2023-07-07T06:13:35.652Z,16.36
2023-07-07T06:16:02.821Z,17.00
2023-07-07T06:18:29.927Z,16.60
2023-07-07T06:21:03.165Z,17.55
2023-07-07T06:23:31.850Z,17.30
2023-07-07T06:25:58.948Z,17.66
2023-07-07T06:28:25.957Z,16.82
2023-07-07T06:30:53.707Z,17.41
2023-07-07T06:33:22.194Z,17.84
2023-07-07T06:35:49.997Z,17.60
2023-07-07T06:38:16.923Z,18.81
2023-07-07T06:40:44.097Z,18.97
2023-07-07T06:43:11.045Z,19.12
2023-07-07T06:45:39.275Z,19.50
2023-07-07T06:48:07.069Z,19.51
2023-07-07T06:50:42.802Z,19.54
2023-07-07T06:53:11.796Z,19.71
2023-07-07T06:55:39.475Z,20.03
2023-07-07T06:58:06.562Z,20.13
2023-07-07T07:00:33.728Z,20.43
2023-07-07T07:03:00.775Z,20.45
2023-07-07T07:05:27.781Z,19.93
2023-07-07T07:07:55.418Z,20.54
2023-07-07T07:10:22.366Z,20.32
2023-07-07T07:12:49.673Z,20.88
2023-07-07T07:15:16.918Z,20.83
2023-07-07T07:17:44.834Z,20.76
2023-07-07T07:20:12.824Z,20.93
2023-07-07T07:22:39.767Z,21.18
2023-07-07T07:25:08.175Z,21.51
2023-07-07T07:27:35.353Z,21.76
2023-07-07T07:30:02.306Z,21.32
2023-07-07T07:32:29.501Z,20.29
2023-07-07T07:34:56.454Z,19.69
2023-07-07T07:37:23.438Z,21.27
2023-07-07T07:39:50.398Z,21.09
2023-07-07T07:42:17.267Z,20.75
2023-07-07T07:44:44.197Z,21.03
2023-07-07T07:47:11.207Z,21.95
2023-07-07T07:49:38.214Z,22.37
2023-07-07T07:52:05.623Z,22.43
2023-07-07T07:54:32.563Z,21.74
2023-07-07T07:57:00.189Z,22.36
2023-07-07T07:59:27.076Z,22.15
2023-07-07T08:01:53.989Z,22.91
2023-07-07T08:04:20.942Z,23.44
2023-07-07T08:06:56.795Z,23.78
2023-07-07T08:09:23.928Z,24.00
2023-07-07T08:11:50.793Z,24.06
2023-07-07T08:14:20.336Z,23.94
2023-07-07T08:16:48.815Z,23.81
2023-07-07T08:19:19.360Z,23.76
2023-07-07T08:21:47.734Z,24.69
2023-07-07T08:24:15.205Z,24.81
2023-07-07T08:26:42.219Z,24.32
2023-07-07T08:29:24.584Z,24.24
2023-07-07T08:31:52.610Z,24.33
2023-07-07T08:34:19.903Z,25.00
2023-07-07T08:36:48.879Z,25.21
2023-07-07T08:39:23.490Z,24.76
2023-07-07T08:42:02.787Z,25.34
2023-07-07T08:44:32.689Z,25.32
2023-07-07T08:47:11.791Z,26.01
2023-07-07T08:49:48.492Z,25.58
2023-07-07T08:52:29.943Z,25.90
2023-07-07T08:55:30.672Z,25.15
2023-07-07T08:58:29.521Z,25.51
2023-07-07T09:01:21.940Z,25.18
2023-07-07T09:04:06.240Z,25.10
2023-07-07T09:06:46.209Z,25.44
2023-07-07T09:09:42.358Z,25.26
2023-07-07T09:12:26.018Z,25.31
2023-07-07T09:14:56.863Z,25.44
2023-07-07T09:17:33.832Z,25.27
2023-07-07T09:20:04.383Z,25.72
2023-07-07T09:23:03.420Z,26.16
2023-07-07T09:25:48.991Z,26.23
2023-07-07T09:28:18.192Z,26.06
2023-07-07T09:30:54.230Z,26.61
2023-07-07T09:33:24.618Z,26.36
2023-07-07T09:36:14.106Z,27.02
2023-07-07T09:39:06.039Z,27.07
2023-07-07T09:41:45.112Z,27.07
2023-07-07T09:44:36.892Z,26.51
2023-07-07T09:47:33.115Z,26.31
2023-07-07T09:50:13.587Z,26.11
2023-07-07T09:52:40.444Z,26.37
2023-07-07T09:55:21.165Z,26.44
2023-07-07T09:57:57.737Z,25.56
2023-07-07T10:00:43.408Z,26.38
2023-07-07T10:03:23.302Z,26.95
2023-07-07T10:05:54.007Z,26.58
2023-07-07T10:08:20.884Z,26.23
2023-07-07T10:11:02.520Z,25.90
2023-07-07T10:13:39.579Z,25.66
2023-07-07T10:16:09.252Z,26.24
2023-07-07T10:18:45.310Z,25.90
2023-07-07T10:21:20.508Z,26.57
2023-07-07T10:23:47.373Z,26.54
2023-07-07T10:26:14.420Z,26.56
2023-07-07T10:28:41.664Z,26.86
2023-07-07T10:31:10.931Z,27.26
2023-07-07T10:33:37.980Z,25.76
2023-07-07T10:36:29.837Z,25.89
2023-07-07T10:38:57.796Z,26.99
2023-07-07T10:41:25.653Z,27.54
2023-07-07T10:43:53.385Z,27.57
2023-07-07T10:46:20.434Z,27.71
2023-07-07T10:48:48.171Z,27.26
2023-07-07T10:51:26.344Z,27.02
2023-07-07T10:54:02.314Z,27.74
2023-07-07T10:56:55.349Z,27.89
2023-07-07T10:59:53.514Z,27.72
2023-07-07T11:02:55.704Z,27.01
2023-07-07T11:05:35.616Z,27.02
2023-07-07T11:08:29.712Z,27.87
2023-07-07T11:11:19.630Z,27.14
2023-07-07T11:13:58.894Z,27.37
2023-07-07T11:17:07.437Z,27.75
2023-07-07T11:19:55.436Z,27.71
2023-07-07T11:22:35.242Z,27.60
2023-07-07T11:25:17.250Z,27.76
2023-07-07T11:28:10.138Z,27.98
2023-07-07T11:30:58.695Z,28.31
2023-07-07T11:33:52.052Z,27.59
2023-07-07T11:36:40.240Z,27.79
2023-07-07T11:39:30.173Z,27.75
2023-07-07T11:42:19.626Z,28.72
2023-07-07T11:45:15.951Z,28.87
2023-07-07T11:48:17.362Z,29.32
2023-07-07T11:51:16.662Z,29.36
2023-07-07T11:53:49.700Z,28.81
2023-07-07T11:56:47.588Z,28.68
2023-07-07T11:59:52.289Z,29.41
2023-07-07T12:02:36.327Z,29.25
2023-07-07T12:05:08.606Z,28.54
2023-07-07T12:07:48.872Z,28.63
2023-07-07T12:10:18.713Z,29.61
2023-07-07T12:12:56.788Z,29.85
2023-07-07T12:15:31.021Z,28.72
2023-07-07T12:18:19.186Z,28.44
2023-07-07T12:21:12.813Z,29.76
2023-07-07T12:23:56.279Z,30.51
2023-07-07T12:26:36.792Z,30.75
2023-07-07T12:29:06.300Z,30.98
2023-07-07T12:31:34.321Z,30.60
2023-07-07T12:34:41.165Z,28.00
2023-07-07T12:37:21.789Z,29.33
2023-07-07T12:39:57.025Z,29.37
2023-07-07T12:42:27.148Z,29.00
2023-07-07T12:44:54.604Z,29.37
2023-07-07T12:47:27.983Z,30.17
2023-07-07T12:49:59.280Z,29.76
2023-07-07T12:52:31.090Z,28.85
2023-07-07T12:55:16.500Z,30.22
2023-07-07T12:58:03.985Z,30.69
2023-07-07T13:00:39.016Z,31.15
2023-07-07T13:03:20.328Z,30.47
2023-07-07T13:05:49.959Z,30.50
2023-07-07T13:08:36.746Z,30.11
2023-07-07T13:11:17.187Z,30.89
2023-07-07T13:13:47.342Z,31.10
2023-07-07T13:16:24.313Z,31.04
2023-07-07T13:18:51.435Z,30.51
2023-07-07T13:21:21.423Z,30.26
2023-07-07T13:23:51.453Z,30.81
2023-07-07T13:26:26.350Z,31.44
2023-07-07T13:29:01.414Z,31.90
2023-07-07T13:31:29.238Z,30.06
2023-07-07T13:33:56.290Z,29.76
2023-07-07T13:36:26.424Z,30.50
2023-07-07T13:38:55.075Z,31.35
2023-07-07T13:41:23.193Z,30.53
2023-07-07T13:43:53.780Z,31.31
2023-07-07T13:46:30.875Z,31.60
2023-07-07T13:49:07.424Z,32.00
2023-07-07T13:51:38.620Z,31.65
2023-07-07T13:54:08.813Z,30.57
2023-07-07T13:56:43.064Z,30.97
2023-07-07T13:59:30.718Z,30.67
2023-07-07T14:01:59.109Z,31.62
2023-07-07T14:04:39.538Z,31.59
2023-07-07T14:07:13.571Z,30.87
2023-07-07T14:09:43.918Z,31.20
2023-07-07T14:12:13.618Z,30.32
2023-07-07T14:14:47.432Z,29.80
2023-07-07T14:17:33.631Z,28.46
2023-07-07T14:20:08.727Z,29.44
2023-07-07T14:22:36.323Z,29.96
2023-07-07T14:25:05.555Z,29.45
2023-07-07T14:27:32.906Z,31.14
2023-07-07T14:30:01.033Z,31.32
2023-07-07T14:32:38.320Z,29.74
2023-07-07T14:35:21.627Z,29.85
2023-07-07T14:37:53.487Z,30.08
2023-07-07T14:40:33.070Z,30.81
2023-07-07T14:43:05.020Z,29.83
2023-07-07T14:45:35.431Z,30.12
2023-07-07T14:48:02.973Z,29.77
2023-07-07T14:50:34.435Z,30.62
2023-07-07T14:53:03.768Z,30.22
2023-07-07T14:55:31.964Z,30.29
2023-07-07T14:58:04.600Z,30.47
2023-07-07T15:00:43.281Z,32.25
2023-07-07T15:03:27.730Z,31.54
2023-07-07T15:06:11.401Z,30.33
2023-07-07T15:08:43.877Z,29.49
2023-07-07T15:11:13.827Z,30.63
2023-07-07T15:13:42.958Z,30.42
2023-07-07T15:16:17.174Z,30.32
2023-07-07T15:18:44.143Z,30.53
2023-07-07T15:21:21.303Z,31.54
2023-07-07T15:23:48.499Z,30.27
2023-07-07T15:26:23.132Z,30.83
2023-07-07T15:28:50.154Z,31.12
2023-07-07T15:31:20.460Z,31.29
2023-07-07T15:33:47.616Z,31.73
2023-07-07T15:36:15.739Z,31.12
2023-07-07T15:38:42.629Z,31.16
2023-07-07T15:41:14.747Z,31.20
2023-07-07T15:43:41.779Z,30.38
2023-07-07T15:46:13.699Z,31.06
2023-07-07T15:48:40.842Z,31.06
2023-07-07T15:51:35.998Z,30.98
2023-07-07T15:54:08.828Z,30.03
2023-07-07T15:56:38.352Z,31.27
2023-07-07T15:59:15.907Z,31.14
2023-07-07T16:01:43.313Z,30.23
2023-07-07T16:04:10.437Z,29.72
2023-07-07T16:06:38.463Z,29.90
2023-07-07T16:09:13.141Z,28.60
2023-07-07T16:11:40.182Z,29.07
2023-07-07T16:14:07.272Z,28.38
2023-07-07T16:16:37.122Z,29.10
2023-07-07T16:19:33.705Z,29.67
2023-07-07T16:22:20.905Z,29.40
2023-07-07T16:24:47.912Z,27.80
2023-07-07T16:27:17.050Z,28.07
2023-07-07T16:29:44.824Z,28.88
2023-07-07T16:32:13.748Z,28.31
2023-07-07T16:34:41.605Z,27.56
2023-07-07T16:37:14.639Z,26.94
2023-07-07T16:39:41.721Z,27.45
2023-07-07T16:42:15.598Z,27.57
2023-07-07T16:44:42.615Z,27.92
2023-07-07T16:47:13.912Z,27.55
2023-07-07T16:49:40.973Z,27.45
2023-07-07T16:52:08.867Z,27.61
2023-07-07T16:54:35.975Z,26.50
2023-07-07T16:57:03.040Z,26.92
2023-07-07T16:59:30.050Z,27.59
2023-07-07T17:01:57.087Z,27.37
2023-07-07T17:04:25.784Z,27.39
2023-07-07T17:06:53.374Z,27.07
2023-07-07T17:09:23.085Z,27.37
2023-07-07T17:11:50.299Z,27.27
2023-07-07T17:14:17.357Z,27.77
2023-07-07T17:16:44.971Z,26.61
2023-07-07T17:19:15.583Z,28.16
2023-07-07T17:21:42.647Z,27.86
2023-07-07T17:24:09.794Z,27.84
2023-07-07T17:26:38.921Z,27.56
2023-07-07T17:29:13.109Z,27.23
2023-07-07T17:31:40.378Z,27.26
2023-07-07T17:34:09.740Z,27.31
2023-07-07T17:36:38.333Z,26.03
2023-07-07T17:39:13.026Z,26.12
2023-07-07T17:41:40.156Z,26.67
2023-07-07T17:44:07.221Z,26.83
2023-07-07T17:46:38.020Z,26.67
2023-07-07T17:49:20.866Z,26.37
2023-07-07T17:51:48.750Z,26.81
2023-07-07T17:54:17.155Z,26.54
2023-07-07T17:56:48.904Z,27.08
2023-07-07T17:59:23.178Z,26.78
2023-07-07T18:01:53.541Z,26.68
2023-07-07T18:04:20.680Z,26.74
2023-07-07T18:06:50.766Z,26.58
2023-07-07T18:09:18.620Z,25.87
2023-07-07T18:11:45.921Z,26.49
2023-07-07T18:14:13.273Z,26.06
2023-07-07T18:16:45.908Z,26.72
2023-07-07T18:20:06.836Z,25.39
2023-07-07T18:22:13.191Z,26.38
2023-07-07T18:24:40.529Z,26.08
2023-07-07T18:27:11.502Z,25.26
2023-07-07T18:29:38.803Z,24.75
2023-07-07T18:32:11.269Z,25.57
2023-07-07T18:34:38.949Z,24.99
2023-07-07T18:37:12.063Z,24.60
2023-07-07T18:39:40.839Z,24.80
2023-07-07T18:42:10.588Z,24.67
2023-07-07T18:44:38.176Z,24.25
2023-07-07T18:47:14.960Z,24.65
2023-07-07T18:49:42.819Z,23.69
2023-07-07T18:52:10.414Z,22.98
2023-07-07T18:54:37.697Z,22.58
2023-07-07T18:57:05.063Z,23.31
2023-07-07T18:59:32.324Z,23.72
2023-07-07T19:01:59.495Z,21.83
2023-07-07T19:04:27.383Z,22.12
2023-07-07T19:06:54.410Z,22.64
2023-07-07T19:09:25.262Z,21.99
2023-07-07T19:11:54.407Z,23.11
2023-07-07T19:14:21.561Z,22.03
2023-07-07T19:16:51.997Z,21.75
2023-07-07T19:19:25.505Z,21.49
2023-07-07T19:21:52.765Z,21.34
2023-07-07T19:24:19.811Z,22.17
2023-07-07T19:26:54.284Z,22.23
2023-07-07T19:29:21.461Z,21.40
2023-07-07T19:31:52.386Z,20.87
2023-07-07T19:34:19.964Z,21.13
2023-07-07T19:36:48.399Z,21.53
2023-07-07T19:39:17.087Z,21.82
2023-07-07T19:41:45.063Z,21.83
2023-07-07T19:44:14.993Z,20.47
2023-07-07T19:46:43.876Z,21.83
2023-07-07T19:49:19.151Z,21.37
2023-07-07T19:51:47.496Z,21.39
2023-07-07T19:54:14.968Z,21.05
2023-07-07T19:56:42.108Z,20.50
2023-07-07T19:59:20.310Z,19.57
2023-07-07T20:01:48.928Z,20.51
2023-07-07T20:04:16.566Z,20.65
2023-07-07T20:06:46.059Z,19.72
2023-07-07T20:09:21.262Z,20.58
2023-07-07T20:11:49.726Z,19.23
2023-07-07T20:14:16.897Z,19.83
2023-07-07T20:16:52.317Z,19.91
2023-07-07T20:19:23.293Z,20.16
2023-07-07T20:21:52.456Z,18.70
2023-07-07T20:24:22.093Z,17.55
2023-07-07T20:26:56.779Z,18.88
2023-07-07T20:29:26.260Z,18.97
2023-07-07T20:31:53.561Z,18.14
2023-07-07T20:34:20.772Z,18.83
2023-07-07T20:36:48.997Z,18.26
2023-07-07T20:39:18.904Z,19.02
2023-07-07T20:41:46.704Z,17.98
2023-07-07T20:44:13.710Z,16.82
2023-07-07T20:46:43.501Z,18.24
2023-07-07T20:49:19.832Z,18.78
2023-07-07T20:51:48.107Z,18.64
2023-07-07T20:54:15.516Z,18.72
2023-07-07T20:56:42.983Z,18.47
2023-07-07T21:01:45.373Z,17.89
2023-07-07T21:04:12.608Z,16.06
2023-07-07T21:06:39.730Z,17.46
2023-07-07T21:09:12.579Z,17.45
2023-07-07T21:11:40.001Z,15.95
2023-07-07T21:14:07.502Z,17.02
2023-07-07T21:16:35.846Z,17.51
2023-07-07T21:19:03.013Z,17.54
2023-07-07T21:21:30.017Z,16.59
2023-07-07T21:23:57.686Z,17.44
2023-07-07T21:26:29.320Z,17.91
2023-07-07T21:28:56.706Z,17.30
2023-07-07T21:31:27.459Z,17.13
2023-07-07T21:33:54.411Z,17.03
2023-07-07T21:36:30.587Z,17.89
2023-07-07T21:39:02.364Z,16.74
2023-07-07T21:41:35.208Z,16.32
2023-07-07T21:44:09.521Z,15.92
2023-07-07T21:46:39.659Z,15.75
2023-07-07T21:49:09.500Z,15.54
2023-07-07T21:51:36.823Z,17.10
2023-07-07T21:54:03.903Z,15.34
2023-07-07T21:56:33.692Z,16.38
2023-07-07T21:59:17.602Z,16.85
2023-07-07T22:01:45.777Z,16.95
2023-07-07T22:04:13.648Z,15.81
2023-07-07T22:06:40.869Z,16.20
2023-07-07T22:09:16.676Z,16.77
2023-07-07T22:11:45.408Z,16.79
2023-07-07T22:14:12.516Z,16.32
2023-07-07T22:16:39.572Z,15.94
2023-07-07T22:19:06.671Z,15.45
2023-07-07T22:21:33.617Z,14.97
2023-07-07T22:24:00.700Z,14.98
2023-07-07T22:26:29.007Z,14.73
2023-07-07T22:28:55.980Z,16.15
2023-07-07T22:31:23.272Z,16.06
2023-07-07T22:33:50.256Z,14.64
2023-07-07T22:36:26.239Z,16.09
2023-07-07T22:38:53.479Z,14.78
2023-07-07T22:41:25.807Z,15.82
2023-07-07T22:43:52.892Z,15.46
2023-07-07T22:46:21.805Z,15.13
2023-07-07T22:48:49.445Z,14.93
2023-07-07T22:51:17.682Z,15.57
2023-07-07T22:53:45.255Z,14.96
2023-07-07T22:56:26.146Z,14.84
2023-07-07T22:58:54.371Z,15.36
2023-07-07T23:01:22.334Z,13.36
2023-07-07T23:03:51.980Z,14.47
2023-07-07T23:06:18.998Z,13.00
2023-07-07T23:08:46.036Z,14.85
2023-07-07T23:11:15.105Z,13.15
2023-07-07T23:13:42.309Z,13.12
2023-07-07T23:16:14.904Z,14.88
2023-07-07T23:18:42.946Z,14.73
2023-07-07T23:21:15.542Z,14.37
2023-07-07T23:23:43.319Z,14.97
2023-07-07T23:26:28.809Z,14.39
2023-07-07T23:28:57.266Z,14.23
2023-07-07T23:31:29.082Z,14.16
2023-07-07T23:33:57.059Z,13.65
2023-07-07T23:36:32.838Z,13.23
2023-07-07T23:39:01.963Z,14.61
2023-07-07T23:41:29.377Z,13.00
2023-07-07T23:43:56.639Z,13.38
2023-07-07T23:46:23.956Z,13.69
2023-07-07T23:48:50.970Z,13.04
2023-07-07T23:51:18.199Z,13.61
2023-07-07T23:53:47.660Z,14.82
2023-07-07T23:56:23.197Z,14.66
2023-07-07T23:58:51.018Z,13.81
